sensor_id;sensor_type;location;lat;lon;timestamp;P1;durP1;ratioP1;P2;durP2;ratioP2
75342;SDS011;63936;51.006;13.764;2023-06-19T00:00:03;10;;;8;;
75342;SDS011;63936;51.006;13.764;2023-06-19T00:02:05;11;;;8;;
75342;SDS011;63936;51.006;13.764;2023-06-19T00:04:03;11;;;8;;
75342;SDS011;63936;51.006;13.764;2023-06-19T00:06:06;9;;;8;;
75342;SDS011;63936;51.006;13.764;2023-06-19T00:08:04;9;;;7;;
75342;SDS011;63936;51.006;13.764;2023-06-19T00:10:15;10;;;7;;
75342;SDS011;63936;51.006;13.764;2023-06-19T00:12:04;10;;;7;;
75342;SDS011;63936;51.006;13.764;2023-06-19T00:14:04;11;;;8;;
75342;SDS011;63936;51.006;13.764;2023-06-19T00:16:02;14;;;8;;
75342;SDS011;63936;51.006;13.764;2023-06-19T00:18:03;11;;;8;;
75342;SDS011;63936;51.006;13.764;2023-06-19T00:20:07;10;;;8;;
75342;SDS011;63936;51.006;13.764;2023-06-19T00:22:02;9;;;7;;
75342;SDS011;63936;51.006;13.764;2023-06-19T00:24:03;10;;;7;;
75342;SDS011;63936;51.006;13.764;2023-06-19T00:26:02;9;;;7;;
75342;SDS011;63936;51.006;13.764;2023-06-19T00:28:02;9;;;7;;
75342;SDS011;63936;51.006;13.764;2023-06-19T00:30:11;10;;;7;;
75342;SDS011;63936;51.006;13.764;2023-06-19T00:32:04;10;;;8;;
75342;SDS011;63936;51.006;13.764;2023-06-19T00:34:02;9;;;7;;
75342;SDS011;63936;51.006;13.764;2023-06-19T00:36:04;9;;;7;;
75342;SDS011;63936;51.006;13.764;2023-06-19T00:38:04;9;;;7;;
75342;SDS011;63936;51.006;13.764;2023-06-19T00:40:07;11;;;8;;
75342;SDS011;63936;51.006;13.764;2023-06-19T00:42:03;11;;;8;;
75342;SDS011;63936;51.006;13.764;2023-06-19T00:44:02;10;;;8;;
75342;SDS011;63936;51.006;13.764;2023-06-19T00:46:02;10;;;7;;
75342;SDS011;63936;51.006;13.764;2023-06-19T00:48:03;9;;;8;;
75342;SDS011;63936;51.006;13.764;2023-06-19T00:50:04;10;;;8;;
75342;SDS011;63936;51.006;13.764;2023-06-19T00:52:02;11;;;9;;
75342;SDS011;63936;51.006;13.764;2023-06-19T00:54:02;10;;;8;;
75342;SDS011;63936;51.006;13.764;2023-06-19T00:56:02;11;;;8;;
75342;SDS011;63936;51.006;13.764;2023-06-19T00:58:02;11;;;9;;
75342;SDS011;63936;51.006;13.764;2023-06-19T01:00:05;11;;;8;;
75342;SDS011;63936;51.006;13.764;2023-06-19T01:02:01;11;;;8;;
75342;SDS011;63936;51.006;13.764;2023-06-19T01:04:01;9;;;8;;
75342;SDS011;63936;51.006;13.764;2023-06-19T01:06:01;11;;;8;;
75342;SDS011;63936;51.006;13.764;2023-06-19T01:08:03;11;;;8;;
75342;SDS011;63936;51.006;13.764;2023-06-19T01:10:04;11;;;9;;
75342;SDS011;63936;51.006;13.764;2023-06-19T01:12:04;10;;;9;;
75342;SDS011;63936;51.006;13.764;2023-06-19T01:14:03;11;;;9;;
75342;SDS011;63936;51.006;13.764;2023-06-19T01:16:01;11;;;8;;
75342;SDS011;63936;51.006;13.764;2023-06-19T01:18:01;10;;;9;;
75342;SDS011;63936;51.006;13.764;2023-06-19T01:20:02;11;;;9;;
75342;SDS011;63936;51.006;13.764;2023-06-19T01:22:02;12;;;9;;
75342;SDS011;63936;51.006;13.764;2023-06-19T01:24:01;11;;;9;;
75342;SDS011;63936;51.006;13.764;2023-06-19T01:26:01;12;;;9;;
75342;SDS011;63936;51.006;13.764;2023-06-19T01:28:01;12;;;8;;
75342;SDS011;63936;51.006;13.764;2023-06-19T01:30:03;12;;;9;;
75342;SDS011;63936;51.006;13.764;2023-06-19T01:32:02;11;;;9;;
75342;SDS011;63936;51.006;13.764;2023-06-19T01:34:02;12;;;9;;
75342;SDS011;63936;51.006;13.764;2023-06-19T01:36:01;12;;;9;;
75342;SDS011;63936;51.006;13.764;2023-06-19T01:38:02;12;;;9;;
75342;SDS011;63936;51.006;13.764;2023-06-19T01:40:03;11;;;9;;
75342;SDS011;63936;51.006;13.764;2023-06-19T01:42:01;12;;;9;;
75342;SDS011;63936;51.006;13.764;2023-06-19T01:44:01;13;;;9;;
75342;SDS011;63936;51.006;13.764;2023-06-19T01:46:01;13;;;10;;
75342;SDS011;63936;51.006;13.764;2023-06-19T01:48:02;12;;;9;;
75342;SDS011;63936;51.006;13.764;2023-06-19T01:50:05;12;;;9;;
75342;SDS011;63936;51.006;13.764;2023-06-19T01:52:01;12;;;9;;
75342;SDS011;63936;51.006;13.764;2023-06-19T01:54:01;11;;;9;;
75342;SDS011;63936;51.006;13.764;2023-06-19T01:56:02;11;;;9;;
75342;SDS011;63936;51.006;13.764;2023-06-19T01:58:02;11;;;10;;
75342;SDS011;63936;51.006;13.764;2023-06-19T02:00:07;12;;;10;;
75342;SDS011;63936;51.006;13.764;2023-06-19T02:02:02;13;;;11;;
75342;SDS011;63936;51.006;13.764;2023-06-19T02:04:02;11;;;9;;
75342;SDS011;63936;51.006;13.764;2023-06-19T02:06:01;11;;;9;;
75342;SDS011;63936;51.006;13.764;2023-06-19T02:08:01;11;;;10;;
75342;SDS011;63936;51.006;13.764;2023-06-19T02:10:02;12;;;9;;
75342;SDS011;63936;51.006;13.764;2023-06-19T02:12:02;12;;;10;;
75342;SDS011;63936;51.006;13.764;2023-06-19T02:14:02;12;;;10;;
75342;SDS011;63936;51.006;13.764;2023-06-19T02:16:01;10;;;9;;
75342;SDS011;63936;51.006;13.764;2023-06-19T02:18:02;12;;;9;;
75342;SDS011;63936;51.006;13.764;2023-06-19T02:20:03;13;;;10;;
75342;SDS011;63936;51.006;13.764;2023-06-19T02:22:17;12;;;9;;
75342;SDS011;63936;51.006;13.764;2023-06-19T02:24:02;12;;;9;;
75342;SDS011;63936;51.006;13.764;2023-06-19T02:26:02;15;;;11;;
75342;SDS011;63936;51.006;13.764;2023-06-19T02:28:02;12;;;10;;
75342;SDS011;63936;51.006;13.764;2023-06-19T02:30:03;12;;;10;;
75342;SDS011;63936;51.006;13.764;2023-06-19T02:32:01;12;;;9;;
75342;SDS011;63936;51.006;13.764;2023-06-19T02:34:01;12;;;9;;
75342;SDS011;63936;51.006;13.764;2023-06-19T02:36:01;11;;;9;;
75342;SDS011;63936;51.006;13.764;2023-06-19T02:38:02;11;;;9;;
75342;SDS011;63936;51.006;13.764;2023-06-19T02:40:03;11;;;9;;
75342;SDS011;63936;51.006;13.764;2023-06-19T02:42:04;12;;;9;;
75342;SDS011;63936;51.006;13.764;2023-06-19T02:44:02;12;;;9;;
75342;SDS011;63936;51.006;13.764;2023-06-19T02:46:02;12;;;9;;
75342;SDS011;63936;51.006;13.764;2023-06-19T02:48:01;12;;;9;;
75342;SDS011;63936;51.006;13.764;2023-06-19T02:50:03;12;;;9;;
75342;SDS011;63936;51.006;13.764;2023-06-19T02:52:02;12;;;10;;
75342;SDS011;63936;51.006;13.764;2023-06-19T02:54:02;12;;;11;;
75342;SDS011;63936;51.006;13.764;2023-06-19T02:56:01;12;;;11;;
75342;SDS011;63936;51.006;13.764;2023-06-19T02:58:01;12;;;11;;
75342;SDS011;63936;51.006;13.764;2023-06-19T03:00:03;13;;;11;;
75342;SDS011;63936;51.006;13.764;2023-06-19T03:02:09;13;;;11;;
75342;SDS011;63936;51.006;13.764;2023-06-19T03:04:04;13;;;11;;
75342;SDS011;63936;51.006;13.764;2023-06-19T03:06:04;12;;;10;;
75342;SDS011;63936;51.006;13.764;2023-06-19T03:08:02;13;;;10;;
75342;SDS011;63936;51.006;13.764;2023-06-19T03:10:10;13;;;10;;
75342;SDS011;63936;51.006;13.764;2023-06-19T03:12:02;13;;;10;;
75342;SDS011;63936;51.006;13.764;2023-06-19T03:14:01;13;;;10;;
75342;SDS011;63936;51.006;13.764;2023-06-19T03:16:01;13;;;10;;
75342;SDS011;63936;51.006;13.764;2023-06-19T03:18:01;13;;;10;;
75342;SDS011;63936;51.006;13.764;2023-06-19T03:20:02;14;;;11;;
75342;SDS011;63936;51.006;13.764;2023-06-19T03:22:01;14;;;11;;
75342;SDS011;63936;51.006;13.764;2023-06-19T03:24:01;13;;;10;;
75342;SDS011;63936;51.006;13.764;2023-06-19T03:26:01;13;;;10;;
75342;SDS011;63936;51.006;13.764;2023-06-19T03:28:01;13;;;10;;
75342;SDS011;63936;51.006;13.764;2023-06-19T03:30:03;12;;;10;;
75342;SDS011;63936;51.006;13.764;2023-06-19T03:32:01;12;;;10;;
75342;SDS011;63936;51.006;13.764;2023-06-19T03:34:01;12;;;10;;
75342;SDS011;63936;51.006;13.764;2023-06-19T03:36:01;12;;;10;;
75342;SDS011;63936;51.006;13.764;2023-06-19T03:38:01;13;;;10;;
75342;SDS011;63936;51.006;13.764;2023-06-19T03:40:03;12;;;10;;
75342;SDS011;63936;51.006;13.764;2023-06-19T03:42:01;12;;;10;;
75342;SDS011;63936;51.006;13.764;2023-06-19T03:44:01;12;;;10;;
75342;SDS011;63936;51.006;13.764;2023-06-19T03:46:01;13;;;10;;
75342;SDS011;63936;51.006;13.764;2023-06-19T03:48:01;13;;;10;;
75342;SDS011;63936;51.006;13.764;2023-06-19T03:50:03;13;;;10;;
75342;SDS011;63936;51.006;13.764;2023-06-19T03:52:01;13;;;10;;
75342;SDS011;63936;51.006;13.764;2023-06-19T03:54:01;13;;;10;;
75342;SDS011;63936;51.006;13.764;2023-06-19T03:56:01;13;;;10;;
75342;SDS011;63936;51.006;13.764;2023-06-19T03:58:01;12;;;10;;
75342;SDS011;63936;51.006;13.764;2023-06-19T04:00:03;12;;;10;;
75342;SDS011;63936;51.006;13.764;2023-06-19T04:02:12;12;;;10;;
75342;SDS011;63936;51.006;13.764;2023-06-19T04:04:04;13;;;10;;
75342;SDS011;63936;51.006;13.764;2023-06-19T04:06:03;13;;;10;;
75342;SDS011;63936;51.006;13.764;2023-06-19T04:08:02;13;;;11;;
75342;SDS011;63936;51.006;13.764;2023-06-19T04:10:03;13;;;11;;
75342;SDS011;63936;51.006;13.764;2023-06-19T04:12:08;11;;;10;;
75342;SDS011;63936;51.006;13.764;2023-06-19T04:14:02;11;;;10;;
75342;SDS011;63936;51.006;13.764;2023-06-19T04:16:02;12;;;9;;
75342;SDS011;63936;51.006;13.764;2023-06-19T04:18:02;12;;;9;;
75342;SDS011;63936;51.006;13.764;2023-06-19T04:20:03;11;;;9;;
75342;SDS011;63936;51.006;13.764;2023-06-19T04:22:02;11;;;9;;
75342;SDS011;63936;51.006;13.764;2023-06-19T04:24:01;12;;;9;;
75342;SDS011;63936;51.006;13.764;2023-06-19T04:26:02;11;;;9;;
75342;SDS011;63936;51.006;13.764;2023-06-19T04:28:02;11;;;9;;
75342;SDS011;63936;51.006;13.764;2023-06-19T04:30:04;11;;;9;;
75342;SDS011;63936;51.006;13.764;2023-06-19T04:32:01;11;;;9;;
75342;SDS011;63936;51.006;13.764;2023-06-19T04:34:01;12;;;9;;
75342;SDS011;63936;51.006;13.764;2023-06-19T04:36:01;11;;;8;;
75342;SDS011;63936;51.006;13.764;2023-06-19T04:38:01;11;;;8;;
75342;SDS011;63936;51.006;13.764;2023-06-19T04:40:02;10;;;8;;
75342;SDS011;63936;51.006;13.764;2023-06-19T04:42:02;11;;;8;;
75342;SDS011;63936;51.006;13.764;2023-06-19T04:44:02;11;;;9;;
75342;SDS011;63936;51.006;13.764;2023-06-19T04:46:01;13;;;9;;
75342;SDS011;63936;51.006;13.764;2023-06-19T04:48:02;11;;;8;;
75342;SDS011;63936;51.006;13.764;2023-06-19T04:50:03;11;;;9;;
75342;SDS011;63936;51.006;13.764;2023-06-19T04:52:02;11;;;9;;
75342;SDS011;63936;51.006;13.764;2023-06-19T04:54:02;10;;;9;;
75342;SDS011;63936;51.006;13.764;2023-06-19T04:56:01;10;;;8;;
75342;SDS011;63936;51.006;13.764;2023-06-19T04:58:01;10;;;8;;
75342;SDS011;63936;51.006;13.764;2023-06-19T05:00:02;11;;;8;;
75342;SDS011;63936;51.006;13.764;2023-06-19T05:02:02;11;;;8;;
75342;SDS011;63936;51.006;13.764;2023-06-19T05:04:01;11;;;8;;
75342;SDS011;63936;51.006;13.764;2023-06-19T05:06:02;11;;;8;;
75342;SDS011;63936;51.006;13.764;2023-06-19T05:08:02;10;;;8;;
75342;SDS011;63936;51.006;13.764;2023-06-19T05:10:03;11;;;8;;
75342;SDS011;63936;51.006;13.764;2023-06-19T05:12:02;11;;;8;;
75342;SDS011;63936;51.006;13.764;2023-06-19T05:14:02;10;;;8;;
75342;SDS011;63936;51.006;13.764;2023-06-19T05:16:02;10;;;8;;
75342;SDS011;63936;51.006;13.764;2023-06-19T05:18:01;10;;;8;;
75342;SDS011;63936;51.006;13.764;2023-06-19T05:20:03;11;;;9;;
75342;SDS011;63936;51.006;13.764;2023-06-19T05:22:02;12;;;8;;
75342;SDS011;63936;51.006;13.764;2023-06-19T05:24:01;10;;;8;;
75342;SDS011;63936;51.006;13.764;2023-06-19T05:26:01;11;;;9;;
75342;SDS011;63936;51.006;13.764;2023-06-19T05:28:01;11;;;8;;
75342;SDS011;63936;51.006;13.764;2023-06-19T05:30:03;12;;;8;;
75342;SDS011;63936;51.006;13.764;2023-06-19T05:32:03;10;;;8;;
75342;SDS011;63936;51.006;13.764;2023-06-19T05:34:02;10;;;8;;
75342;SDS011;63936;51.006;13.764;2023-06-19T05:36:04;12;;;8;;
75342;SDS011;63936;51.006;13.764;2023-06-19T05:38:01;11;;;8;;
75342;SDS011;63936;51.006;13.764;2023-06-19T05:40:02;10;;;8;;
75342;SDS011;63936;51.006;13.764;2023-06-19T05:42:02;10;;;8;;
75342;SDS011;63936;51.006;13.764;2023-06-19T05:44:01;12;;;8;;
75342;SDS011;63936;51.006;13.764;2023-06-19T05:46:01;10;;;7;;
75342;SDS011;63936;51.006;13.764;2023-06-19T05:48:01;10;;;8;;
75342;SDS011;63936;51.006;13.764;2023-06-19T05:50:02;11;;;8;;
75342;SDS011;63936;51.006;13.764;2023-06-19T05:52:01;11;;;8;;
75342;SDS011;63936;51.006;13.764;2023-06-19T05:54:01;10;;;8;;
75342;SDS011;63936;51.006;13.764;2023-06-19T05:56:01;10;;;7;;
75342;SDS011;63936;51.006;13.764;2023-06-19T05:58:02;10;;;7;;
75342;SDS011;63936;51.006;13.764;2023-06-19T06:00:02;9;;;7;;
75342;SDS011;63936;51.006;13.764;2023-06-19T06:02:01;9;;;8;;
75342;SDS011;63936;51.006;13.764;2023-06-19T06:04:01;10;;;7;;
75342;SDS011;63936;51.006;13.764;2023-06-19T06:06:01;10;;;7;;
75342;SDS011;63936;51.006;13.764;2023-06-19T06:08:01;10;;;8;;
75342;SDS011;63936;51.006;13.764;2023-06-19T06:10:02;10;;;8;;
75342;SDS011;63936;51.006;13.764;2023-06-19T06:12:01;11;;;8;;
75342;SDS011;63936;51.006;13.764;2023-06-19T06:14:01;12;;;8;;
75342;SDS011;63936;51.006;13.764;2023-06-19T06:16:01;10;;;7;;
75342;SDS011;63936;51.006;13.764;2023-06-19T06:18:01;10;;;8;;
75342;SDS011;63936;51.006;13.764;2023-06-19T06:20:02;13;;;8;;
75342;SDS011;63936;51.006;13.764;2023-06-19T06:22:01;12;;;8;;
75342;SDS011;63936;51.006;13.764;2023-06-19T06:24:01;12;;;8;;
75342;SDS011;63936;51.006;13.764;2023-06-19T06:26:02;12;;;8;;
75342;SDS011;63936;51.006;13.764;2023-06-19T06:28:02;11;;;8;;
75342;SDS011;63936;51.006;13.764;2023-06-19T06:30:02;11;;;8;;
75342;SDS011;63936;51.006;13.764;2023-06-19T06:32:03;10;;;7;;
75342;SDS011;63936;51.006;13.764;2023-06-19T06:34:01;10;;;7;;
75342;SDS011;63936;51.006;13.764;2023-06-19T06:36:02;12;;;8;;
75342;SDS011;63936;51.006;13.764;2023-06-19T06:38:02;12;;;8;;
75342;SDS011;63936;51.006;13.764;2023-06-19T06:40:02;10;;;7;;
75342;SDS011;63936;51.006;13.764;2023-06-19T06:42:01;10;;;7;;
75342;SDS011;63936;51.006;13.764;2023-06-19T06:44:01;11;;;7;;
75342;SDS011;63936;51.006;13.764;2023-06-19T06:46:01;11;;;7;;
75342;SDS011;63936;51.006;13.764;2023-06-19T06:48:01;12;;;8;;
75342;SDS011;63936;51.006;13.764;2023-06-19T06:50:08;10;;;7;;
75342;SDS011;63936;51.006;13.764;2023-06-19T06:52:02;11;;;7;;
75342;SDS011;63936;51.006;13.764;2023-06-19T06:54:01;11;;;7;;
75342;SDS011;63936;51.006;13.764;2023-06-19T06:56:02;10;;;8;;
75342;SDS011;63936;51.006;13.764;2023-06-19T06:58:01;10;;;8;;
75342;SDS011;63936;51.006;13.764;2023-06-19T07:00:02;10;;;7;;
75342;SDS011;63936;51.006;13.764;2023-06-19T07:02:01;13;;;7;;
75342;SDS011;63936;51.006;13.764;2023-06-19T07:04:01;12;;;8;;
75342;SDS011;63936;51.006;13.764;2023-06-19T07:06:02;11;;;7;;
75342;SDS011;63936;51.006;13.764;2023-06-19T07:08:02;10;;;7;;
75342;SDS011;63936;51.006;13.764;2023-06-19T07:10:03;11;;;7;;
75342;SDS011;63936;51.006;13.764;2023-06-19T07:12:01;18;;;8;;
75342;SDS011;63936;51.006;13.764;2023-06-19T07:14:01;15;;;8;;
75342;SDS011;63936;51.006;13.764;2023-06-19T07:16:01;11;;;7;;
75342;SDS011;63936;51.006;13.764;2023-06-19T07:18:01;11;;;7;;
75342;SDS011;63936;51.006;13.764;2023-06-19T07:20:03;11;;;7;;
75342;SDS011;63936;51.006;13.764;2023-06-19T07:22:02;10;;;7;;
75342;SDS011;63936;51.006;13.764;2023-06-19T07:24:02;10;;;8;;
75342;SDS011;63936;51.006;13.764;2023-06-19T07:26:01;10;;;7;;
75342;SDS011;63936;51.006;13.764;2023-06-19T07:28:01;10;;;7;;
75342;SDS011;63936;51.006;13.764;2023-06-19T07:30:02;9;;;7;;
75342;SDS011;63936;51.006;13.764;2023-06-19T07:32:01;9;;;7;;
75342;SDS011;63936;51.006;13.764;2023-06-19T07:34:01;9;;;7;;
75342;SDS011;63936;51.006;13.764;2023-06-19T07:36:02;12;;;7;;
75342;SDS011;63936;51.006;13.764;2023-06-19T07:38:02;11;;;6;;
75342;SDS011;63936;51.006;13.764;2023-06-19T07:40:03;9;;;7;;
75342;SDS011;63936;51.006;13.764;2023-06-19T07:42:02;9;;;7;;
75342;SDS011;63936;51.006;13.764;2023-06-19T07:44:01;9;;;7;;
75342;SDS011;63936;51.006;13.764;2023-06-19T07:46:02;9;;;7;;
75342;SDS011;63936;51.006;13.764;2023-06-19T07:48:02;8;;;6;;
75342;SDS011;63936;51.006;13.764;2023-06-19T07:50:05;8;;;6;;
75342;SDS011;63936;51.006;13.764;2023-06-19T07:52:02;9;;;6;;
75342;SDS011;63936;51.006;13.764;2023-06-19T07:54:01;9;;;6;;
75342;SDS011;63936;51.006;13.764;2023-06-19T07:56:01;9;;;6;;
75342;SDS011;63936;51.006;13.764;2023-06-19T07:58:01;9;;;6;;
75342;SDS011;63936;51.006;13.764;2023-06-19T08:00:03;10;;;6;;
75342;SDS011;63936;51.006;13.764;2023-06-19T08:02:01;9;;;6;;
75342;SDS011;63936;51.006;13.764;2023-06-19T08:04:01;9;;;7;;
75342;SDS011;63936;51.006;13.764;2023-06-19T08:06:01;10;;;7;;
75342;SDS011;63936;51.006;13.764;2023-06-19T08:08:01;10;;;6;;
75342;SDS011;63936;51.006;13.764;2023-06-19T08:10:03;9;;;6;;
75342;SDS011;63936;51.006;13.764;2023-06-19T08:12:02;9;;;6;;
75342;SDS011;63936;51.006;13.764;2023-06-19T08:14:02;9;;;6;;
75342;SDS011;63936;51.006;13.764;2023-06-19T08:16:02;9;;;6;;
75342;SDS011;63936;51.006;13.764;2023-06-19T08:18:01;9;;;6;;
75342;SDS011;63936;51.006;13.764;2023-06-19T08:20:02;11;;;6;;
75342;SDS011;63936;51.006;13.764;2023-06-19T08:22:02;9;;;6;;
75342;SDS011;63936;51.006;13.764;2023-06-19T08:24:02;8;;;6;;
75342;SDS011;63936;51.006;13.764;2023-06-19T08:26:01;8;;;6;;
75342;SDS011;63936;51.006;13.764;2023-06-19T08:28:01;9;;;6;;
75342;SDS011;63936;51.006;13.764;2023-06-19T08:30:03;9;;;6;;
75342;SDS011;63936;51.006;13.764;2023-06-19T08:32:01;8;;;6;;
75342;SDS011;63936;51.006;13.764;2023-06-19T08:34:01;8;;;6;;
75342;SDS011;63936;51.006;13.764;2023-06-19T08:36:02;8;;;6;;
75342;SDS011;63936;51.006;13.764;2023-06-19T08:38:01;8;;;6;;
75342;SDS011;63936;51.006;13.764;2023-06-19T08:40:03;8;;;6;;
75342;SDS011;63936;51.006;13.764;2023-06-19T08:42:02;9;;;6;;
75342;SDS011;63936;51.006;13.764;2023-06-19T08:44:02;9;;;6;;
75342;SDS011;63936;51.006;13.764;2023-06-19T08:46:05;9;;;6;;
75342;SDS011;63936;51.006;13.764;2023-06-19T08:48:01;8;;;6;;
75342;SDS011;63936;51.006;13.764;2023-06-19T08:50:02;8;;;6;;
75342;SDS011;63936;51.006;13.764;2023-06-19T08:52:02;16;;;6;;
75342;SDS011;63936;51.006;13.764;2023-06-19T08:54:02;11;;;6;;
75342;SDS011;63936;51.006;13.764;2023-06-19T08:56:01;9;;;7;;
75342;SDS011;63936;51.006;13.764;2023-06-19T08:58:01;9;;;6;;
75342;SDS011;63936;51.006;13.764;2023-06-19T09:00:03;9;;;6;;
75342;SDS011;63936;51.006;13.764;2023-06-19T09:02:01;9;;;6;;
75342;SDS011;63936;51.006;13.764;2023-06-19T09:04:07;9;;;7;;
75342;SDS011;63936;51.006;13.764;2023-06-19T09:06:03;9;;;7;;
75342;SDS011;63936;51.006;13.764;2023-06-19T09:08:01;9;;;6;;
75342;SDS011;63936;51.006;13.764;2023-06-19T09:10:10;9;;;6;;
75342;SDS011;63936;51.006;13.764;2023-06-19T09:12:01;11;;;6;;
75342;SDS011;63936;51.006;13.764;2023-06-19T09:14:01;10;;;6;;
75342;SDS011;63936;51.006;13.764;2023-06-19T09:16:01;10;;;6;;
75342;SDS011;63936;51.006;13.764;2023-06-19T09:18:02;12;;;7;;
75342;SDS011;63936;51.006;13.764;2023-06-19T09:20:02;9;;;6;;
75342;SDS011;63936;51.006;13.764;2023-06-19T09:22:01;8;;;6;;
75342;SDS011;63936;51.006;13.764;2023-06-19T09:24:03;9;;;7;;
75342;SDS011;63936;51.006;13.764;2023-06-19T09:26:01;10;;;7;;
75342;SDS011;63936;51.006;13.764;2023-06-19T09:28:01;10;;;6;;
75342;SDS011;63936;51.006;13.764;2023-06-19T09:30:04;11;;;6;;
75342;SDS011;63936;51.006;13.764;2023-06-19T09:32:13;13;;;6;;
75342;SDS011;63936;51.006;13.764;2023-06-19T09:34:03;11;;;7;;
75342;SDS011;63936;51.006;13.764;2023-06-19T09:36:02;9;;;7;;
75342;SDS011;63936;51.006;13.764;2023-06-19T09:38:01;10;;;7;;
75342;SDS011;63936;51.006;13.764;2023-06-19T09:40:03;10;;;7;;
75342;SDS011;63936;51.006;13.764;2023-06-19T09:42:02;10;;;7;;
75342;SDS011;63936;51.006;13.764;2023-06-19T09:44:02;10;;;6;;
75342;SDS011;63936;51.006;13.764;2023-06-19T09:46:02;10;;;7;;
75342;SDS011;63936;51.006;13.764;2023-06-19T09:48:02;10;;;7;;
75342;SDS011;63936;51.006;13.764;2023-06-19T09:50:03;10;;;6;;
75342;SDS011;63936;51.006;13.764;2023-06-19T09:52:02;11;;;6;;
75342;SDS011;63936;51.006;13.764;2023-06-19T09:54:01;11;;;7;;
75342;SDS011;63936;51.006;13.764;2023-06-19T09:56:01;10;;;7;;
75342;SDS011;63936;51.006;13.764;2023-06-19T09:58:01;9;;;6;;
75342;SDS011;63936;51.006;13.764;2023-06-19T10:00:07;10;;;6;;
75342;SDS011;63936;51.006;13.764;2023-06-19T10:02:01;10;;;7;;
75342;SDS011;63936;51.006;13.764;2023-06-19T10:04:02;9;;;7;;
75342;SDS011;63936;51.006;13.764;2023-06-19T10:06:02;19;;;7;;
75342;SDS011;63936;51.006;13.764;2023-06-19T10:08:02;12;;;7;;
75342;SDS011;63936;51.006;13.764;2023-06-19T10:10:03;9;;;6;;
75342;SDS011;63936;51.006;13.764;2023-06-19T10:12:02;10;;;6;;
75342;SDS011;63936;51.006;13.764;2023-06-19T10:14:05;9;;;7;;
75342;SDS011;63936;51.006;13.764;2023-06-19T10:16:02;10;;;7;;
75342;SDS011;63936;51.006;13.764;2023-06-19T10:18:02;9;;;7;;
75342;SDS011;63936;51.006;13.764;2023-06-19T10:20:02;10;;;7;;
75342;SDS011;63936;51.006;13.764;2023-06-19T10:22:02;9;;;6;;
75342;SDS011;63936;51.006;13.764;2023-06-19T10:24:01;10;;;7;;
75342;SDS011;63936;51.006;13.764;2023-06-19T10:26:02;11;;;7;;
75342;SDS011;63936;51.006;13.764;2023-06-19T10:28:02;11;;;7;;
75342;SDS011;63936;51.006;13.764;2023-06-19T10:30:03;9;;;6;;
75342;SDS011;63936;51.006;13.764;2023-06-19T10:32:02;8;;;6;;
75342;SDS011;63936;51.006;13.764;2023-06-19T10:34:02;8;;;6;;
75342;SDS011;63936;51.006;13.764;2023-06-19T10:36:12;8;;;6;;
75342;SDS011;63936;51.006;13.764;2023-06-19T10:38:02;9;;;6;;
75342;SDS011;63936;51.006;13.764;2023-06-19T10:40:02;9;;;6;;
75342;SDS011;63936;51.006;13.764;2023-06-19T10:42:04;9;;;7;;
75342;SDS011;63936;51.006;13.764;2023-06-19T10:44:03;9;;;6;;
75342;SDS011;63936;51.006;13.764;2023-06-19T10:46:02;10;;;7;;
75342;SDS011;63936;51.006;13.764;2023-06-19T10:48:02;8;;;6;;
75342;SDS011;63936;51.006;13.764;2023-06-19T10:50:02;10;;;6;;
75342;SDS011;63936;51.006;13.764;2023-06-19T10:52:01;10;;;6;;
75342;SDS011;63936;51.006;13.764;2023-06-19T10:54:01;8;;;6;;
75342;SDS011;63936;51.006;13.764;2023-06-19T10:56:02;10;;;6;;
75342;SDS011;63936;51.006;13.764;2023-06-19T10:58:01;10;;;7;;
75342;SDS011;63936;51.006;13.764;2023-06-19T11:00:03;8;;;6;;
75342;SDS011;63936;51.006;13.764;2023-06-19T11:02:01;8;;;6;;
75342;SDS011;63936;51.006;13.764;2023-06-19T11:04:03;9;;;6;;
75342;SDS011;63936;51.006;13.764;2023-06-19T11:06:01;8;;;6;;
75342;SDS011;63936;51.006;13.764;2023-06-19T11:08:01;9;;;7;;
75342;SDS011;63936;51.006;13.764;2023-06-19T11:10:03;9;;;7;;
75342;SDS011;63936;51.006;13.764;2023-06-19T11:12:01;9;;;6;;
75342;SDS011;63936;51.006;13.764;2023-06-19T11:14:01;10;;;6;;
75342;SDS011;63936;51.006;13.764;2023-06-19T11:16:01;10;;;7;;
75342;SDS011;63936;51.006;13.764;2023-06-19T11:18:02;8;;;6;;
75342;SDS011;63936;51.006;13.764;2023-06-19T11:20:09;9;;;6;;
75342;SDS011;63936;51.006;13.764;2023-06-19T11:22:01;10;;;5;;
75342;SDS011;63936;51.006;13.764;2023-06-19T11:24:02;8;;;6;;
75342;SDS011;63936;51.006;13.764;2023-06-19T11:26:02;9;;;7;;
75342;SDS011;63936;51.006;13.764;2023-06-19T11:28:02;8;;;5;;
75342;SDS011;63936;51.006;13.764;2023-06-19T11:30:02;12;;;6;;
75342;SDS011;63936;51.006;13.764;2023-06-19T11:32:05;8;;;5;;
75342;SDS011;63936;51.006;13.764;2023-06-19T11:34:01;8;;;6;;
75342;SDS011;63936;51.006;13.764;2023-06-19T11:36:01;9;;;6;;
75342;SDS011;63936;51.006;13.764;2023-06-19T11:38:01;8;;;5;;
75342;SDS011;63936;51.006;13.764;2023-06-19T11:40:02;8;;;5;;
75342;SDS011;63936;51.006;13.764;2023-06-19T11:42:01;9;;;6;;
75342;SDS011;63936;51.006;13.764;2023-06-19T11:44:03;8;;;5;;
75342;SDS011;63936;51.006;13.764;2023-06-19T11:46:02;7;;;5;;
75342;SDS011;63936;51.006;13.764;2023-06-19T11:48:04;8;;;5;;
75342;SDS011;63936;51.006;13.764;2023-06-19T11:50:03;7;;;5;;
75342;SDS011;63936;51.006;13.764;2023-06-19T11:52:01;8;;;5;;
75342;SDS011;63936;51.006;13.764;2023-06-19T11:54:01;7;;;5;;
75342;SDS011;63936;51.006;13.764;2023-06-19T11:56:02;8;;;5;;
75342;SDS011;63936;51.006;13.764;2023-06-19T11:58:01;7;;;4;;
75342;SDS011;63936;51.006;13.764;2023-06-19T12:00:03;7;;;4;;
75342;SDS011;63936;51.006;13.764;2023-06-19T12:02:01;7;;;5;;
75342;SDS011;63936;51.006;13.764;2023-06-19T12:04:02;10;;;5;;
75342;SDS011;63936;51.006;13.764;2023-06-19T12:06:01;9;;;4;;
75342;SDS011;63936;51.006;13.764;2023-06-19T12:08:01;7;;;5;;
75342;SDS011;63936;51.006;13.764;2023-06-19T12:10:02;7;;;5;;
75342;SDS011;63936;51.006;13.764;2023-06-19T12:12:02;7;;;4;;
75342;SDS011;63936;51.006;13.764;2023-06-19T12:14:01;7;;;4;;
75342;SDS011;63936;51.006;13.764;2023-06-19T12:16:01;10;;;5;;
75342;SDS011;63936;51.006;13.764;2023-06-19T12:18:01;7;;;5;;
75342;SDS011;63936;51.006;13.764;2023-06-19T12:20:02;7;;;4;;
75342;SDS011;63936;51.006;13.764;2023-06-19T12:22:03;8;;;4;;
75342;SDS011;63936;51.006;13.764;2023-06-19T12:24:02;10;;;5;;
75342;SDS011;63936;51.006;13.764;2023-06-19T12:26:01;7;;;4;;
75342;SDS011;63936;51.006;13.764;2023-06-19T12:28:01;8;;;5;;
75342;SDS011;63936;51.006;13.764;2023-06-19T12:30:02;7;;;4;;
75342;SDS011;63936;51.006;13.764;2023-06-19T12:32:02;7;;;4;;
75342;SDS011;63936;51.006;13.764;2023-06-19T12:34:02;6;;;4;;
75342;SDS011;63936;51.006;13.764;2023-06-19T12:36:02;6;;;4;;
75342;SDS011;63936;51.006;13.764;2023-06-19T12:38:02;7;;;4;;
75342;SDS011;63936;51.006;13.764;2023-06-19T12:40:03;7;;;4;;
75342;SDS011;63936;51.006;13.764;2023-06-19T12:42:01;6;;;4;;
75342;SDS011;63936;51.006;13.764;2023-06-19T12:44:01;7;;;4;;
75342;SDS011;63936;51.006;13.764;2023-06-19T12:46:01;6;;;4;;
75342;SDS011;63936;51.006;13.764;2023-06-19T12:48:01;7;;;4;;
75342;SDS011;63936;51.006;13.764;2023-06-19T12:50:03;7;;;4;;